createdAt,value
2019-03-06T00:02:05.781Z,5.30
2019-03-06T00:05:06.251Z,5.50
2019-03-06T00:08:07.410Z,5.50
2019-03-06T00:11:08.132Z,5.50
2019-03-06T00:14:08.616Z,5.50
2019-03-06T00:17:09.870Z,5.50
2019-03-06T00:20:10.392Z,5.40
2019-03-06T00:23:10.772Z,5.20
2019-03-06T00:26:11.421Z,5.30
2019-03-06T00:29:11.692Z,5.40
2019-03-06T00:32:12.901Z,5.30
2019-03-06T00:35:18.090Z,5.20
2019-03-06T00:38:19.211Z,5.20
2019-03-06T00:41:24.569Z,5.20
2019-03-06T00:44:25.435Z,4.90
2019-03-06T00:47:26.070Z,5.00
2019-03-06T00:50:26.844Z,4.90
2019-03-06T00:53:27.436Z,4.90
2019-03-06T00:56:27.925Z,4.90
2019-03-06T00:59:28.601Z,4.90
2019-03-06T01:02:28.867Z,4.80
2019-03-06T01:05:29.153Z,4.80
2019-03-06T01:08:29.571Z,4.70
2019-03-06T01:11:29.988Z,4.70
2019-03-06T01:14:30.565Z,4.60
2019-03-06T01:17:31.290Z,4.60
2019-03-06T01:20:39.109Z,4.50
2019-03-06T01:23:47.060Z,4.50
2019-03-06T01:26:47.559Z,4.50
2019-03-06T01:29:48.091Z,4.50
2019-03-06T01:33:07.877Z,4.40
2019-03-06T01:36:13.424Z,4.40
2019-03-06T01:39:33.123Z,4.30
2019-03-06T01:42:38.668Z,4.30
2019-03-06T01:45:39.447Z,4.30
2019-03-06T01:48:40.453Z,4.20
2019-03-06T01:51:40.871Z,4.10
2019-03-06T01:54:41.198Z,4.10
2019-03-06T01:57:41.629Z,4.10
2019-03-06T02:00:42.103Z,4.10
2019-03-06T02:03:42.659Z,4.10
2019-03-06T02:06:43.791Z,4.00
2019-03-06T02:09:44.497Z,3.90
2019-03-06T02:12:45.206Z,3.90
2019-03-06T02:15:45.649Z,4.00
2019-03-06T02:18:46.461Z,4.00
2019-03-06T02:21:47.087Z,4.00
2019-03-06T02:24:47.806Z,3.90
2019-03-06T02:27:48.326Z,3.90
2019-03-06T02:30:48.879Z,3.80
2019-03-06T02:33:49.590Z,3.90
2019-03-06T02:36:50.426Z,3.90
2019-03-06T02:39:51.254Z,3.90
2019-03-06T02:42:51.547Z,3.80
2019-03-06T02:45:52.017Z,3.70
2019-03-06T02:48:52.998Z,3.60
2019-03-06T02:51:53.470Z,3.70
2019-03-06T02:54:54.103Z,3.70
2019-03-06T02:57:58.965Z,3.70
2019-03-06T03:01:03.905Z,3.60
2019-03-06T03:04:08.806Z,3.60
2019-03-06T03:07:11.373Z,3.60
2019-03-06T03:10:12.249Z,3.60
2019-03-06T03:13:13.002Z,3.40
2019-03-06T03:16:13.978Z,3.40
2019-03-06T03:19:14.535Z,3.30
2019-03-06T03:22:15.057Z,3.20
2019-03-06T03:25:15.721Z,3.20
2019-03-06T03:28:19.732Z,3.10
2019-03-06T03:31:20.117Z,3.10
2019-03-06T03:34:20.594Z,3.00
2019-03-06T03:37:21.290Z,3.00
2019-03-06T03:40:21.989Z,3.10
2019-03-06T03:43:22.351Z,3.10
2019-03-06T03:46:23.118Z,3.10
2019-03-06T03:49:23.891Z,3.10
2019-03-06T03:52:24.397Z,3.00
2019-03-06T03:55:24.867Z,2.90
2019-03-06T03:58:25.346Z,2.90
2019-03-06T04:01:25.896Z,2.90
2019-03-06T04:04:26.651Z,3.00
2019-03-06T04:07:27.259Z,2.90
2019-03-06T04:10:27.978Z,2.80
2019-03-06T04:13:28.533Z,2.80
2019-03-06T04:16:28.983Z,2.60
2019-03-06T04:19:29.647Z,2.60
2019-03-06T04:22:30.263Z,2.70
2019-03-06T04:25:30.635Z,2.70
2019-03-06T04:28:31.029Z,2.80
2019-03-06T04:31:31.658Z,2.90
2019-03-06T04:34:32.391Z,2.80
2019-03-06T04:37:32.976Z,2.60
2019-03-06T04:40:33.665Z,2.60
2019-03-06T04:43:34.185Z,2.70
2019-03-06T04:46:34.771Z,2.40
2019-03-06T04:49:35.341Z,2.60
2019-03-06T04:52:35.875Z,2.50
2019-03-06T04:55:36.478Z,2.50
2019-03-06T04:58:36.858Z,2.50
2019-03-06T05:01:37.772Z,2.50
2019-03-06T05:04:38.591Z,2.30
2019-03-06T05:07:39.666Z,2.30
2019-03-06T05:10:40.371Z,2.20
2019-03-06T05:13:41.162Z,2.30
2019-03-06T05:16:43.210Z,2.30
2019-03-06T05:19:44.306Z,2.30
2019-03-06T05:22:44.728Z,2.10
2019-03-06T05:25:45.385Z,2.00
2019-03-06T05:28:46.644Z,2.10
2019-03-06T05:31:47.269Z,2.00
2019-03-06T05:34:48.361Z,2.00
2019-03-06T05:37:48.669Z,2.20
2019-03-06T05:40:49.461Z,2.10
2019-03-06T05:43:49.975Z,2.10
2019-03-06T05:46:50.542Z,1.90
2019-03-06T05:49:51.198Z,2.00
2019-03-06T05:52:52.044Z,2.00
2019-03-06T05:55:52.775Z,1.90
2019-03-06T05:58:53.451Z,1.80
2019-03-06T06:01:54.762Z,1.90
2019-03-06T06:04:43.332Z,1.90
2019-03-06T06:07:52.898Z,1.70
2019-03-06T06:10:53.839Z,1.70
2019-03-06T06:13:54.631Z,1.90
2019-03-06T06:16:55.896Z,1.90
2019-03-06T06:19:44.410Z,1.90
2019-03-06T06:23:11.876Z,2.00
2019-03-06T06:26:12.692Z,1.90
2019-03-06T06:29:13.058Z,2.00
2019-03-06T06:32:14.283Z,2.00
2019-03-06T06:35:15.196Z,2.20
2019-03-06T06:38:15.717Z,2.20
2019-03-06T06:41:16.920Z,2.40
2019-03-06T06:44:17.646Z,2.50
2019-03-06T06:47:17.942Z,2.20
2019-03-06T06:50:18.390Z,2.60
2019-03-06T06:53:18.778Z,2.80
2019-03-06T06:56:19.209Z,3.00
2019-03-06T06:59:19.977Z,3.20
2019-03-06T07:02:22.013Z,3.30
2019-03-06T07:05:24.240Z,3.40
2019-03-06T07:08:29.539Z,3.50
2019-03-06T07:11:31.776Z,3.60
2019-03-06T07:14:36.869Z,3.70
2019-03-06T07:17:39.594Z,3.80
2019-03-06T07:20:59.221Z,3.50
2019-03-06T07:27:10.785Z,4.10
2019-03-06T07:30:37.847Z,4.40
2019-03-06T07:33:40.655Z,4.70
2019-03-06T07:36:45.590Z,5.00
2019-03-06T07:39:47.719Z,5.10
2019-03-06T07:42:49.897Z,5.40
2019-03-06T07:45:52.146Z,5.60
2019-03-06T07:52:21.579Z,6.00
2019-03-06T07:58:36.288Z,6.50
2019-03-06T08:01:36.981Z,6.90
2019-03-06T08:04:37.248Z,7.20
2019-03-06T08:07:38.158Z,7.80
2019-03-06T08:10:39.684Z,8.20
2019-03-06T08:13:41.804Z,8.50
2019-03-06T08:16:46.971Z,8.70
2019-03-06T08:20:07.317Z,8.90
2019-03-06T08:29:24.079Z,9.70
2019-03-06T08:35:24.186Z,10.30
2019-03-06T08:38:24.863Z,10.80
2019-03-06T08:41:25.382Z,11.20
2019-03-06T08:44:26.147Z,11.60
2019-03-06T08:47:46.187Z,11.90
2019-03-06T08:51:06.389Z,12.20
2019-03-06T08:54:29.798Z,12.60
2019-03-06T08:57:35.481Z,12.90
2019-03-06T09:00:55.399Z,13.30
2019-03-06T09:03:58.133Z,13.80
2019-03-06T09:07:18.366Z,14.30
2019-03-06T09:10:41.951Z,14.60
2019-03-06T09:17:05.559Z,15.10
2019-03-06T09:20:08.877Z,15.40
2019-03-06T09:23:11.567Z,15.20
2019-03-06T09:26:31.901Z,15.20
2019-03-06T09:29:41.028Z,14.80
2019-03-06T09:33:01.370Z,14.70
2019-03-06T09:39:32.450Z,14.80
2019-03-06T09:42:36.182Z,14.50
2019-03-06T09:45:39.238Z,14.10
2019-03-06T09:49:00.144Z,13.90
2019-03-06T09:52:19.907Z,14.10
2019-03-06T09:55:40.194Z,14.00
2019-03-06T09:59:00.192Z,13.70
2019-03-06T10:02:06.732Z,13.30
2019-03-06T10:05:24.403Z,13.20
2019-03-06T10:08:44.468Z,13.20
2019-03-06T10:12:04.800Z,13.50
2019-03-06T10:15:25.029Z,14.00
2019-03-06T10:18:49.115Z,14.40
2019-03-06T10:21:50.574Z,14.30
2019-03-06T10:24:52.242Z,14.20
2019-03-06T10:27:52.846Z,14.10
2019-03-06T10:31:02.140Z,14.00
2019-03-06T10:33:56.543Z,13.80
2019-03-06T10:36:57.444Z,13.60
2019-03-06T10:39:58.311Z,13.70
2019-03-06T10:42:59.006Z,13.70
2019-03-06T10:45:59.706Z,13.70
2019-03-06T10:49:01.480Z,14.00
2019-03-06T10:52:02.799Z,14.30
2019-03-06T10:55:04.419Z,14.70
2019-03-06T10:58:05.685Z,15.40
2019-03-06T11:01:07.331Z,16.30
2019-03-06T11:04:12.993Z,16.70
2019-03-06T11:07:14.506Z,16.80
2019-03-06T11:10:23.597Z,16.70
2019-03-06T11:13:21.477Z,16.10
2019-03-06T11:16:22.623Z,16.00
2019-03-06T11:19:12.153Z,16.10
2019-03-06T11:22:20.701Z,16.30
2019-03-06T11:28:51.353Z,16.50
2019-03-06T11:31:54.217Z,16.50
2019-03-06T11:34:55.750Z,16.40
2019-03-06T11:38:00.891Z,16.40
2019-03-06T11:41:02.008Z,16.10
2019-03-06T11:44:03.691Z,16.40
2019-03-06T11:47:05.285Z,16.70
2019-03-06T11:50:06.993Z,17.50
2019-03-06T11:53:08.062Z,18.20
2019-03-06T11:56:10.773Z,18.50
2019-03-06T11:59:11.695Z,19.00
2019-03-06T12:02:13.588Z,19.00
2019-03-06T12:05:15.475Z,18.70
2019-03-06T12:08:17.049Z,19.40
2019-03-06T12:11:18.743Z,20.70
2019-03-06T12:14:20.166Z,21.30
2019-03-06T12:17:21.378Z,21.90
2019-03-06T12:20:22.636Z,21.20
2019-03-06T12:23:24.015Z,21.50
2019-03-06T12:26:24.974Z,21.00
2019-03-06T12:29:27.841Z,20.90
2019-03-06T12:32:28.921Z,20.60
2019-03-06T12:35:30.354Z,20.20
2019-03-06T12:38:31.694Z,20.30
2019-03-06T12:41:33.430Z,21.00
2019-03-06T12:44:34.836Z,21.70
2019-03-06T12:47:36.432Z,21.80
2019-03-06T12:50:37.767Z,22.40
2019-03-06T12:53:38.899Z,22.50
2019-03-06T12:56:40.489Z,22.00
2019-03-06T12:59:41.826Z,22.40
2019-03-06T13:02:42.858Z,22.40
2019-03-06T13:05:44.107Z,22.30
2019-03-06T13:11:48.901Z,22.20
2019-03-06T13:14:50.404Z,22.50
2019-03-06T13:17:51.756Z,21.60
2019-03-06T13:20:52.913Z,21.70
2019-03-06T13:23:54.349Z,21.50
2019-03-06T13:26:55.565Z,21.10
2019-03-06T13:29:57.378Z,20.80
2019-03-06T13:33:03.158Z,20.70
2019-03-06T13:36:05.852Z,20.40
2019-03-06T13:39:07.384Z,20.00
2019-03-06T13:42:08.723Z,19.80
2019-03-06T13:45:09.975Z,19.70
2019-03-06T13:48:11.427Z,19.20
2019-03-06T13:51:12.573Z,18.80
2019-03-06T13:54:14.286Z,18.70
2019-03-06T13:57:15.622Z,18.70
2019-03-06T14:00:17.358Z,18.70
2019-03-06T14:03:19.022Z,18.70
2019-03-06T14:06:20.883Z,18.60
2019-03-06T14:09:22.133Z,18.50
2019-03-06T14:12:23.990Z,18.30
2019-03-06T14:15:26.007Z,18.00
2019-03-06T14:18:27.374Z,17.80
2019-03-06T14:21:28.622Z,17.70
2019-03-06T14:24:30.244Z,17.50
2019-03-06T14:27:31.443Z,17.40
2019-03-06T14:30:33.148Z,17.30
2019-03-06T14:33:34.829Z,17.20
2019-03-06T14:36:35.814Z,17.20
2019-03-06T14:39:37.366Z,17.10
2019-03-06T14:46:16.860Z,16.90
2019-03-06T14:49:17.940Z,16.80
2019-03-06T14:52:19.669Z,16.70
2019-03-06T14:55:21.349Z,16.60
2019-03-06T14:58:23.151Z,16.60
2019-03-06T15:01:25.223Z,16.50
2019-03-06T15:04:26.812Z,16.50
2019-03-06T15:07:28.485Z,16.40
2019-03-06T15:10:29.941Z,16.30
2019-03-06T15:13:31.494Z,16.20
2019-03-06T15:16:32.852Z,15.90
2019-03-06T15:19:33.224Z,15.80
2019-03-06T15:22:38.544Z,15.70
2019-03-06T15:25:36.958Z,15.70
2019-03-06T15:28:38.099Z,15.50
2019-03-06T15:31:39.380Z,15.40
2019-03-06T15:34:39.873Z,15.50
2019-03-06T15:37:41.148Z,15.40
2019-03-06T15:40:42.353Z,15.50
2019-03-06T15:43:51.213Z,15.50
2019-03-06T15:46:59.150Z,15.50
2019-03-06T15:50:00.446Z,15.50
2019-03-06T15:53:01.686Z,15.60
2019-03-06T15:56:02.691Z,15.70
2019-03-06T15:59:04.701Z,15.50
2019-03-06T16:05:35.634Z,15.40
2019-03-06T16:08:36.490Z,15.30
2019-03-06T16:11:37.366Z,15.20
2019-03-06T16:14:39.251Z,15.20
2019-03-06T16:17:39.929Z,15.10
2019-03-06T16:20:40.461Z,15.00
2019-03-06T16:23:41.000Z,14.90
2019-03-06T16:26:41.719Z,14.80
2019-03-06T16:29:42.404Z,14.60
2019-03-06T16:32:42.844Z,14.50
2019-03-06T16:35:43.438Z,14.40
2019-03-06T16:38:44.929Z,14.30
2019-03-06T16:41:45.358Z,14.20
2019-03-06T16:44:45.966Z,14.10
2019-03-06T16:47:46.987Z,14.00
2019-03-06T16:50:47.589Z,13.90
2019-03-06T16:53:48.031Z,13.90
2019-03-06T16:56:48.725Z,13.80
2019-03-06T16:59:50.070Z,13.70
2019-03-06T17:02:50.409Z,13.60
2019-03-06T17:05:51.403Z,13.50
2019-03-06T17:08:52.041Z,13.40
2019-03-06T17:11:53.285Z,13.40
2019-03-06T17:14:55.686Z,13.40
2019-03-06T17:17:56.245Z,13.30
2019-03-06T17:20:56.935Z,13.30
2019-03-06T17:23:57.694Z,13.30
2019-03-06T17:26:58.093Z,13.30
2019-03-06T17:29:58.554Z,13.30
2019-03-06T17:32:59.342Z,13.30
2019-03-06T17:35:59.845Z,13.30
2019-03-06T17:39:00.329Z,13.40
2019-03-06T17:42:01.581Z,13.30
2019-03-06T17:45:01.962Z,13.20
2019-03-06T17:48:02.507Z,13.20
2019-03-06T17:51:03.061Z,13.20
2019-03-06T17:54:04.203Z,13.10
2019-03-06T17:57:04.995Z,13.00
2019-03-06T18:00:16.311Z,13.00
2019-03-06T18:03:10.579Z,13.00
2019-03-06T18:06:11.532Z,13.00
2019-03-06T18:09:12.154Z,12.90
2019-03-06T18:12:12.726Z,12.90
2019-03-06T18:15:13.250Z,12.90
2019-03-06T18:18:13.681Z,12.90
2019-03-06T18:21:14.788Z,12.90
2019-03-06T18:24:15.412Z,12.90
2019-03-06T18:27:15.935Z,12.70
2019-03-06T18:30:16.320Z,12.80
2019-03-06T18:33:17.722Z,12.70
2019-03-06T18:36:18.914Z,12.60
2019-03-06T18:39:19.281Z,12.30
2019-03-06T18:42:19.837Z,12.30
2019-03-06T18:45:20.522Z,12.40
2019-03-06T18:48:20.917Z,12.50
2019-03-06T18:51:21.329Z,12.40
2019-03-06T18:54:22.223Z,12.20
2019-03-06T18:57:22.955Z,12.30
2019-03-06T19:00:23.453Z,12.30
2019-03-06T19:03:24.610Z,12.30
2019-03-06T19:06:25.365Z,12.30
2019-03-06T19:09:26.605Z,12.10
2019-03-06T19:12:27.310Z,12.10
2019-03-06T19:15:28.173Z,12.00
2019-03-06T19:18:28.950Z,12.00
2019-03-06T19:21:30.517Z,11.90
2019-03-06T19:24:31.747Z,12.00
2019-03-06T19:27:32.244Z,12.00
2019-03-06T19:30:32.944Z,12.10
2019-03-06T19:33:21.797Z,11.90
2019-03-06T19:36:29.935Z,12.00
2019-03-06T19:39:30.362Z,12.30
2019-03-06T19:42:31.114Z,12.10
2019-03-06T19:45:32.222Z,12.10
2019-03-06T19:48:32.738Z,12.40
2019-03-06T19:51:33.471Z,12.60
2019-03-06T19:54:34.350Z,12.70
2019-03-06T19:57:34.933Z,12.80
2019-03-06T20:00:36.191Z,12.90
2019-03-06T20:03:38.312Z,13.00
2019-03-06T20:06:38.848Z,13.00
2019-03-06T20:09:39.346Z,12.90
2019-03-06T20:12:39.820Z,13.00
2019-03-06T20:15:40.391Z,13.00
2019-03-06T20:18:41.147Z,13.00
2019-03-06T20:21:41.573Z,13.00
2019-03-06T20:24:42.181Z,13.00
2019-03-06T20:27:42.815Z,12.90
2019-03-06T20:30:43.757Z,12.90
2019-03-06T20:33:44.111Z,12.90
2019-03-06T20:36:45.712Z,13.00
2019-03-06T20:39:46.580Z,13.00
2019-03-06T20:42:47.093Z,13.00
2019-03-06T20:45:48.474Z,13.10
2019-03-06T20:48:50.214Z,13.00
2019-03-06T20:51:51.503Z,13.00
2019-03-06T20:54:52.064Z,13.10
2019-03-06T20:57:53.578Z,13.10
2019-03-06T21:00:54.597Z,13.10
2019-03-06T21:03:55.181Z,13.10
2019-03-06T21:06:55.490Z,13.10
2019-03-06T21:09:56.226Z,13.10
2019-03-06T21:12:56.660Z,13.00
2019-03-06T21:15:57.220Z,13.00
2019-03-06T21:18:58.326Z,13.10
2019-03-06T21:21:58.814Z,13.00
2019-03-06T21:24:59.406Z,13.20
2019-03-06T21:27:59.758Z,13.30
2019-03-06T21:31:00.103Z,13.30
2019-03-06T21:34:00.640Z,13.30
2019-03-06T21:37:01.164Z,13.30
2019-03-06T21:40:01.780Z,13.30
2019-03-06T21:43:02.143Z,13.30
2019-03-06T21:46:02.616Z,13.40
2019-03-06T21:49:03.063Z,13.30
2019-03-06T21:52:03.531Z,13.30
2019-03-06T21:55:04.626Z,13.20
2019-03-06T21:58:05.229Z,13.20
2019-03-06T22:01:05.705Z,13.10
2019-03-06T22:04:07.066Z,13.10
2019-03-06T22:07:07.620Z,12.90
2019-03-06T22:10:08.335Z,13.00
2019-03-06T22:13:08.819Z,13.00
2019-03-06T22:16:09.678Z,13.00
2019-03-06T22:19:10.446Z,12.80
2019-03-06T22:22:10.894Z,12.70
2019-03-06T22:25:12.186Z,12.60
2019-03-06T22:28:01.375Z,12.50
2019-03-06T22:31:09.399Z,12.40
2019-03-06T22:34:10.754Z,12.10
2019-03-06T22:37:11.181Z,12.00
2019-03-06T22:40:11.604Z,11.90
2019-03-06T22:43:12.138Z,11.70
2019-03-06T22:46:12.547Z,11.70
2019-03-06T22:49:13.365Z,11.50
2019-03-06T22:52:14.018Z,11.20
2019-03-06T22:55:14.663Z,11.20
2019-03-06T22:58:03.474Z,11.30
2019-03-06T23:04:37.855Z,11.10
2019-03-06T23:07:38.674Z,11.20
2019-03-06T23:10:39.193Z,11.10
2019-03-06T23:13:39.859Z,11.00
2019-03-06T23:16:41.092Z,10.80
2019-03-06T23:19:42.302Z,10.80
2019-03-06T23:22:42.874Z,10.90
2019-03-06T23:25:43.502Z,10.80
2019-03-06T23:28:45.004Z,10.80
2019-03-06T23:31:45.313Z,10.70
2019-03-06T23:34:45.727Z,11.30
2019-03-06T23:37:46.810Z,11.30
2019-03-06T23:40:47.507Z,11.50
2019-03-06T23:43:48.190Z,11.70
2019-03-06T23:46:48.477Z,11.80
2019-03-06T23:49:49.229Z,11.70
2019-03-06T23:52:55.167Z,11.80
2019-03-06T23:55:55.969Z,11.50
2019-03-06T23:58:56.717Z,11.70
